sensor_id;sensor_type;location;lat;lon;timestamp;P1;durP1;ratioP1;P2;durP2;ratioP2
30543;SDS011;43388;46.308;4.600;2022-09-02T00:02:21;3.38;;;2.30;;
30543;SDS011;43388;46.308;4.600;2022-09-02T00:04:47;2.55;;;2.10;;
30543;SDS011;43388;46.308;4.600;2022-09-02T00:07:13;2.70;;;2.50;;
30543;SDS011;43388;46.308;4.600;2022-09-02T00:09:39;2.30;;;2.10;;
30543;SDS011;43388;46.308;4.600;2022-09-02T00:12:05;3.40;;;2.40;;
30543;SDS011;43388;46.308;4.600;2022-09-02T00:14:36;5.32;;;2.65;;
30543;SDS011;43388;46.308;4.600;2022-09-02T00:17:03;2.85;;;2.53;;
30543;SDS011;43388;46.308;4.600;2022-09-02T00:19:30;3.28;;;2.22;;
30543;SDS011;43388;46.308;4.600;2022-09-02T00:21:56;3.85;;;2.38;;
30543;SDS011;43388;46.308;4.600;2022-09-02T00:24:23;5.07;;;2.90;;
30543;SDS011;43388;46.308;4.600;2022-09-02T00:26:49;2.88;;;2.67;;
30543;SDS011;43388;46.308;4.600;2022-09-02T00:29:15;2.00;;;1.90;;
30543;SDS011;43388;46.308;4.600;2022-09-02T00:31:42;4.47;;;2.47;;
30543;SDS011;43388;46.308;4.600;2022-09-02T00:34:08;4.82;;;2.67;;
30543;SDS011;43388;46.308;4.600;2022-09-02T00:36:35;3.90;;;2.55;;
30543;SDS011;43388;46.308;4.600;2022-09-02T00:39:01;2.92;;;2.47;;
30543;SDS011;43388;46.308;4.600;2022-09-02T00:41:28;2.85;;;2.60;;
30543;SDS011;43388;46.308;4.600;2022-09-02T00:44:02;4.75;;;2.67;;
30543;SDS011;43388;46.308;4.600;2022-09-02T00:46:29;2.23;;;2.10;;
30543;SDS011;43388;46.308;4.600;2022-09-02T00:51:32;5.22;;;2.70;;
30543;SDS011;43388;46.308;4.600;2022-09-02T00:53:58;3.13;;;2.80;;
30543;SDS011;43388;46.308;4.600;2022-09-02T00:56:26;2.50;;;2.30;;
30543;SDS011;43388;46.308;4.600;2022-09-02T00:58:53;2.58;;;2.38;;
30543;SDS011;43388;46.308;4.600;2022-09-02T01:01:19;2.60;;;2.40;;
30543;SDS011;43388;46.308;4.600;2022-09-02T01:03:46;4.47;;;2.38;;
30543;SDS011;43388;46.308;4.600;2022-09-02T01:06:12;5.78;;;2.33;;
30543;SDS011;43388;46.308;4.600;2022-09-02T01:08:39;3.72;;;2.20;;
30543;SDS011;43388;46.308;4.600;2022-09-02T01:11:07;2.60;;;2.40;;
30543;SDS011;43388;46.308;4.600;2022-09-02T01:13:36;2.47;;;2.28;;
30543;SDS011;43388;46.308;4.600;2022-09-02T01:16:06;3.60;;;2.47;;
30543;SDS011;43388;46.308;4.600;2022-09-02T01:18:34;6.00;;;3.42;;
30543;SDS011;43388;46.308;4.600;2022-09-02T01:21:01;3.03;;;2.60;;
30543;SDS011;43388;46.308;4.600;2022-09-02T01:23:28;2.95;;;2.72;;
30543;SDS011;43388;46.308;4.600;2022-09-02T01:25:55;2.72;;;2.53;;
30543;SDS011;43388;46.308;4.600;2022-09-02T01:28:21;3.38;;;2.25;;
30543;SDS011;43388;46.308;4.600;2022-09-02T01:30:51;3.63;;;2.58;;
30543;SDS011;43388;46.308;4.600;2022-09-02T01:33:18;4.25;;;2.58;;
30543;SDS011;43388;46.308;4.600;2022-09-02T01:35:45;2.40;;;2.22;;
30543;SDS011;43388;46.308;4.600;2022-09-02T01:38:11;3.33;;;2.58;;
30543;SDS011;43388;46.308;4.600;2022-09-02T01:40:37;6.10;;;2.72;;
30543;SDS011;43388;46.308;4.600;2022-09-02T01:43:08;3.30;;;2.97;;
30543;SDS011;43388;46.308;4.600;2022-09-02T01:45:35;3.03;;;2.78;;
30543;SDS011;43388;46.308;4.600;2022-09-02T01:48:02;4.80;;;2.72;;
30543;SDS011;43388;46.308;4.600;2022-09-02T01:50:28;3.08;;;2.38;;
30543;SDS011;43388;46.308;4.600;2022-09-02T01:52:55;2.45;;;2.25;;
30543;SDS011;43388;46.308;4.600;2022-09-02T01:55:22;8.68;;;2.50;;
30543;SDS011;43388;46.308;4.600;2022-09-02T01:57:48;4.53;;;2.30;;
30543;SDS011;43388;46.308;4.600;2022-09-02T02:00:14;3.65;;;2.72;;
30543;SDS011;43388;46.308;4.600;2022-09-02T02:02:41;3.92;;;2.45;;
30543;SDS011;43388;46.308;4.600;2022-09-02T02:05:07;2.53;;;2.33;;
30543;SDS011;43388;46.308;4.600;2022-09-02T02:07:33;3.83;;;1.88;;
30543;SDS011;43388;46.308;4.600;2022-09-02T02:09:59;4.55;;;2.20;;
30543;SDS011;43388;46.308;4.600;2022-09-02T02:12:25;3.17;;;2.08;;
30543;SDS011;43388;46.308;4.600;2022-09-02T02:14:51;2.63;;;2.20;;
30543;SDS011;43388;46.308;4.600;2022-09-02T02:17:18;2.50;;;2.30;;
30543;SDS011;43388;46.308;4.600;2022-09-02T02:19:44;2.85;;;2.58;;
30543;SDS011;43388;46.308;4.600;2022-09-02T02:22:10;2.20;;;2.03;;
30543;SDS011;43388;46.308;4.600;2022-09-02T02:24:38;4.72;;;2.30;;
30543;SDS011;43388;46.308;4.600;2022-09-02T02:27:04;2.67;;;2.47;;
30543;SDS011;43388;46.308;4.600;2022-09-02T02:29:30;3.05;;;2.85;;
30543;SDS011;43388;46.308;4.600;2022-09-02T02:31:56;2.92;;;2.50;;
30543;SDS011;43388;46.308;4.600;2022-09-02T02:34:22;3.10;;;2.40;;
30543;SDS011;43388;46.308;4.600;2022-09-02T02:36:48;4.45;;;2.80;;
30543;SDS011;43388;46.308;4.600;2022-09-02T02:39:14;2.80;;;2.47;;
30543;SDS011;43388;46.308;4.600;2022-09-02T02:41:41;2.35;;;2.15;;
30543;SDS011;43388;46.308;4.600;2022-09-02T02:44:07;3.35;;;2.30;;
30543;SDS011;43388;46.308;4.600;2022-09-02T02:46:33;2.40;;;2.28;;
30543;SDS011;43388;46.308;4.600;2022-09-02T02:49:00;2.63;;;2.40;;
30543;SDS011;43388;46.308;4.600;2022-09-02T02:51:26;5.78;;;2.63;;
30543;SDS011;43388;46.308;4.600;2022-09-02T02:53:52;2.33;;;2.13;;
30543;SDS011;43388;46.308;4.600;2022-09-02T02:56:18;3.75;;;2.90;;
30543;SDS011;43388;46.308;4.600;2022-09-02T02:58:44;4.97;;;2.40;;
30543;SDS011;43388;46.308;4.600;2022-09-02T03:01:10;3.47;;;2.40;;
30543;SDS011;43388;46.308;4.600;2022-09-02T03:03:36;2.95;;;2.20;;
30543;SDS011;43388;46.308;4.600;2022-09-02T03:06:02;2.42;;;2.22;;
30543;SDS011;43388;46.308;4.600;2022-09-02T03:08:29;3.72;;;2.20;;
30543;SDS011;43388;46.308;4.600;2022-09-02T03:10:55;2.47;;;2.20;;
30543;SDS011;43388;46.308;4.600;2022-09-02T03:13:22;3.30;;;2.70;;
30543;SDS011;43388;46.308;4.600;2022-09-02T03:15:49;2.42;;;2.30;;
30543;SDS011;43388;46.308;4.600;2022-09-02T03:18:15;2.90;;;2.38;;
30543;SDS011;43388;46.308;4.600;2022-09-02T03:20:41;6.20;;;2.15;;
30543;SDS011;43388;46.308;4.600;2022-09-02T03:23:08;5.72;;;3.10;;
30543;SDS011;43388;46.308;4.600;2022-09-02T03:25:35;2.72;;;2.53;;
30543;SDS011;43388;46.308;4.600;2022-09-02T03:28:02;2.78;;;2.45;;
30543;SDS011;43388;46.308;4.600;2022-09-02T03:30:29;2.92;;;2.30;;
30543;SDS011;43388;46.308;4.600;2022-09-02T03:32:56;6.72;;;2.53;;
30543;SDS011;43388;46.308;4.600;2022-09-02T03:35:23;2.40;;;2.20;;
30543;SDS011;43388;46.308;4.600;2022-09-02T03:37:49;3.17;;;2.88;;
30543;SDS011;43388;46.308;4.600;2022-09-02T03:40:17;2.58;;;2.38;;
30543;SDS011;43388;46.308;4.600;2022-09-02T03:42:43;3.38;;;2.63;;
30543;SDS011;43388;46.308;4.600;2022-09-02T03:45:10;3.10;;;2.90;;
30543;SDS011;43388;46.308;4.600;2022-09-02T03:47:36;2.50;;;2.20;;
30543;SDS011;43388;46.308;4.600;2022-09-02T03:50:08;6.53;;;2.92;;
30543;SDS011;43388;46.308;4.600;2022-09-02T03:52:34;3.53;;;2.70;;
30543;SDS011;43388;46.308;4.600;2022-09-02T03:55:01;5.65;;;2.60;;
30543;SDS011;43388;46.308;4.600;2022-09-02T03:57:27;2.70;;;2.50;;
30543;SDS011;43388;46.308;4.600;2022-09-02T03:59:53;3.58;;;2.20;;
30543;SDS011;43388;46.308;4.600;2022-09-02T04:02:19;2.65;;;2.42;;
30543;SDS011;43388;46.308;4.600;2022-09-02T04:04:45;4.50;;;2.28;;
30543;SDS011;43388;46.308;4.600;2022-09-02T04:07:11;3.35;;;2.40;;
30543;SDS011;43388;46.308;4.600;2022-09-02T04:09:37;2.63;;;2.42;;
30543;SDS011;43388;46.308;4.600;2022-09-02T04:12:04;4.72;;;2.30;;
30543;SDS011;43388;46.308;4.600;2022-09-02T04:14:31;2.50;;;2.30;;
30543;SDS011;43388;46.308;4.600;2022-09-02T04:16:57;3.58;;;2.63;;
30543;SDS011;43388;46.308;4.600;2022-09-02T04:19:23;2.63;;;2.47;;
30543;SDS011;43388;46.308;4.600;2022-09-02T04:21:49;2.97;;;2.30;;
30543;SDS011;43388;46.308;4.600;2022-09-02T04:24:15;3.92;;;2.75;;
30543;SDS011;43388;46.308;4.600;2022-09-02T04:26:41;3.08;;;2.80;;
30543;SDS011;43388;46.308;4.600;2022-09-02T04:29:07;4.97;;;2.38;;
30543;SDS011;43388;46.308;4.600;2022-09-02T04:31:33;2.13;;;1.92;;
30543;SDS011;43388;46.308;4.600;2022-09-02T04:33:59;3.33;;;2.42;;
30543;SDS011;43388;46.308;4.600;2022-09-02T04:36:26;2.75;;;2.05;;
30543;SDS011;43388;46.308;4.600;2022-09-02T04:38:52;4.60;;;2.50;;
30543;SDS011;43388;46.308;4.600;2022-09-02T04:41:23;3.42;;;2.45;;
30543;SDS011;43388;46.308;4.600;2022-09-02T04:43:49;2.17;;;2.08;;
30543;SDS011;43388;46.308;4.600;2022-09-02T04:46:16;2.65;;;2.45;;
30543;SDS011;43388;46.308;4.600;2022-09-02T04:48:43;3.33;;;2.13;;
30543;SDS011;43388;46.308;4.600;2022-09-02T04:51:11;2.38;;;2.28;;
30543;SDS011;43388;46.308;4.600;2022-09-02T04:53:37;2.45;;;2.28;;
30543;SDS011;43388;46.308;4.600;2022-09-02T04:56:04;4.10;;;2.50;;
30543;SDS011;43388;46.308;4.600;2022-09-02T04:58:31;2.60;;;2.40;;
30543;SDS011;43388;46.308;4.600;2022-09-02T05:00:57;2.90;;;2.40;;
30543;SDS011;43388;46.308;4.600;2022-09-02T05:03:23;2.70;;;2.42;;
30543;SDS011;43388;46.308;4.600;2022-09-02T05:06:00;2.17;;;2.03;;
30543;SDS011;43388;46.308;4.600;2022-09-02T05:08:26;3.17;;;2.53;;
30543;SDS011;43388;46.308;4.600;2022-09-02T05:10:52;3.45;;;2.42;;
30543;SDS011;43388;46.308;4.600;2022-09-02T05:13:18;4.00;;;2.50;;
30543;SDS011;43388;46.308;4.600;2022-09-02T05:15:44;2.38;;;2.17;;
30543;SDS011;43388;46.308;4.600;2022-09-02T05:18:11;2.30;;;2.20;;
30543;SDS011;43388;46.308;4.600;2022-09-02T05:20:38;2.35;;;2.03;;
30543;SDS011;43388;46.308;4.600;2022-09-02T05:23:04;4.47;;;2.50;;
30543;SDS011;43388;46.308;4.600;2022-09-02T05:25:31;2.60;;;2.40;;
30543;SDS011;43388;46.308;4.600;2022-09-02T05:27:57;2.50;;;2.30;;
30543;SDS011;43388;46.308;4.600;2022-09-02T05:30:23;7.10;;;2.60;;
30543;SDS011;43388;46.308;4.600;2022-09-02T05:32:49;5.45;;;2.53;;
30543;SDS011;43388;46.308;4.600;2022-09-02T05:35:15;2.30;;;2.20;;
30543;SDS011;43388;46.308;4.600;2022-09-02T05:37:41;2.35;;;2.17;;
30543;SDS011;43388;46.308;4.600;2022-09-02T05:40:07;2.75;;;2.55;;
30543;SDS011;43388;46.308;4.600;2022-09-02T05:42:35;3.28;;;2.55;;
30543;SDS011;43388;46.308;4.600;2022-09-02T05:45:01;5.00;;;2.63;;
30543;SDS011;43388;46.308;4.600;2022-09-02T05:47:27;2.75;;;2.50;;
30543;SDS011;43388;46.308;4.600;2022-09-02T05:49:53;2.35;;;2.15;;
30543;SDS011;43388;46.308;4.600;2022-09-02T05:52:19;6.68;;;2.70;;
30543;SDS011;43388;46.308;4.600;2022-09-02T05:54:45;8.02;;;2.83;;
30543;SDS011;43388;46.308;4.600;2022-09-02T05:57:14;3.78;;;2.75;;
30543;SDS011;43388;46.308;4.600;2022-09-02T05:59:40;3.42;;;2.60;;
30543;SDS011;43388;46.308;4.600;2022-09-02T06:02:07;4.57;;;2.78;;
30543;SDS011;43388;46.308;4.600;2022-09-02T06:04:52;2.72;;;2.53;;
30543;SDS011;43388;46.308;4.600;2022-09-02T06:07:20;2.65;;;2.45;;
30543;SDS011;43388;46.308;4.600;2022-09-02T06:09:47;3.75;;;2.70;;
30543;SDS011;43388;46.308;4.600;2022-09-02T06:12:14;6.43;;;3.00;;
30543;SDS011;43388;46.308;4.600;2022-09-02T06:14:41;3.40;;;2.72;;
30543;SDS011;43388;46.308;4.600;2022-09-02T06:17:07;5.53;;;2.67;;
30543;SDS011;43388;46.308;4.600;2022-09-02T06:19:34;5.28;;;2.58;;
30543;SDS011;43388;46.308;4.600;2022-09-02T06:22:01;3.20;;;2.40;;
30543;SDS011;43388;46.308;4.600;2022-09-02T06:24:27;2.92;;;2.72;;
30543;SDS011;43388;46.308;4.600;2022-09-02T06:26:55;3.22;;;2.90;;
30543;SDS011;43388;46.308;4.600;2022-09-02T06:29:22;6.25;;;2.75;;
30543;SDS011;43388;46.308;4.600;2022-09-02T06:31:48;4.78;;;2.63;;
30543;SDS011;43388;46.308;4.600;2022-09-02T06:34:15;4.50;;;2.70;;
30543;SDS011;43388;46.308;4.600;2022-09-02T06:36:43;3.38;;;2.33;;
30543;SDS011;43388;46.308;4.600;2022-09-02T06:39:11;10.70;;;2.67;;
30543;SDS011;43388;46.308;4.600;2022-09-02T06:41:38;6.68;;;2.50;;
30543;SDS011;43388;46.308;4.600;2022-09-02T06:44:04;3.47;;;2.63;;
30543;SDS011;43388;46.308;4.600;2022-09-02T06:46:32;3.10;;;2.80;;
30543;SDS011;43388;46.308;4.600;2022-09-02T06:48:59;4.85;;;2.80;;
30543;SDS011;43388;46.308;4.600;2022-09-02T06:51:27;4.05;;;2.63;;
30543;SDS011;43388;46.308;4.600;2022-09-02T06:53:53;5.30;;;2.70;;
30543;SDS011;43388;46.308;4.600;2022-09-02T06:56:19;3.95;;;2.50;;
30543;SDS011;43388;46.308;4.600;2022-09-02T06:58:45;2.65;;;2.47;;
30543;SDS011;43388;46.308;4.600;2022-09-02T07:01:18;3.13;;;2.75;;
30543;SDS011;43388;46.308;4.600;2022-09-02T07:03:44;2.63;;;2.42;;
30543;SDS011;43388;46.308;4.600;2022-09-02T07:06:32;2.70;;;2.50;;
30543;SDS011;43388;46.308;4.600;2022-09-02T07:09:00;2.65;;;2.45;;
30543;SDS011;43388;46.308;4.600;2022-09-02T07:11:26;2.95;;;2.60;;
30543;SDS011;43388;46.308;4.600;2022-09-02T07:13:52;3.28;;;2.75;;
30543;SDS011;43388;46.308;4.600;2022-09-02T07:16:18;4.40;;;2.70;;
30543;SDS011;43388;46.308;4.600;2022-09-02T07:18:44;2.85;;;2.60;;
30543;SDS011;43388;46.308;4.600;2022-09-02T07:21:11;5.43;;;2.63;;
30543;SDS011;43388;46.308;4.600;2022-09-02T07:23:38;3.33;;;2.60;;
30543;SDS011;43388;46.308;4.600;2022-09-02T07:26:06;3.05;;;2.83;;
30543;SDS011;43388;46.308;4.600;2022-09-02T07:28:35;6.00;;;3.33;;
30543;SDS011;43388;46.308;4.600;2022-09-02T07:31:01;3.60;;;3.28;;
30543;SDS011;43388;46.308;4.600;2022-09-02T07:33:27;3.97;;;3.30;;
30543;SDS011;43388;46.308;4.600;2022-09-02T07:35:53;4.72;;;3.08;;
30543;SDS011;43388;46.308;4.600;2022-09-02T07:38:19;4.75;;;2.85;;
30543;SDS011;43388;46.308;4.600;2022-09-02T07:40:45;9.70;;;2.88;;
30543;SDS011;43388;46.308;4.600;2022-09-02T07:43:13;2.53;;;2.33;;
30543;SDS011;43388;46.308;4.600;2022-09-02T07:45:39;2.90;;;2.70;;
30543;SDS011;43388;46.308;4.600;2022-09-02T07:48:07;4.80;;;3.10;;
30543;SDS011;43388;46.308;4.600;2022-09-02T07:50:34;4.03;;;2.75;;
30543;SDS011;43388;46.308;4.600;2022-09-02T07:53:01;3.58;;;3.20;;
30543;SDS011;43388;46.308;4.600;2022-09-02T07:55:30;6.70;;;2.85;;
30543;SDS011;43388;46.308;4.600;2022-09-02T07:57:56;6.30;;;3.28;;
30543;SDS011;43388;46.308;4.600;2022-09-02T08:00:23;3.47;;;2.85;;
30543;SDS011;43388;46.308;4.600;2022-09-02T08:02:51;3.28;;;2.67;;
30543;SDS011;43388;46.308;4.600;2022-09-02T08:05:17;11.13;;;2.90;;
30543;SDS011;43388;46.308;4.600;2022-09-02T08:07:43;8.07;;;3.38;;
30543;SDS011;43388;46.308;4.600;2022-09-02T08:10:10;5.50;;;2.80;;
30543;SDS011;43388;46.308;4.600;2022-09-02T08:12:37;7.10;;;3.15;;
30543;SDS011;43388;46.308;4.600;2022-09-02T08:15:04;4.85;;;3.10;;
30543;SDS011;43388;46.308;4.600;2022-09-02T08:17:30;3.20;;;2.75;;
30543;SDS011;43388;46.308;4.600;2022-09-02T08:19:56;6.65;;;3.25;;
30543;SDS011;43388;46.308;4.600;2022-09-02T08:22:22;7.30;;;2.75;;
30543;SDS011;43388;46.308;4.600;2022-09-02T08:24:49;10.48;;;3.20;;
30543;SDS011;43388;46.308;4.600;2022-09-02T08:27:16;2.90;;;2.60;;
30543;SDS011;43388;46.308;4.600;2022-09-02T08:29:42;7.18;;;3.22;;
30543;SDS011;43388;46.308;4.600;2022-09-02T08:32:08;4.45;;;3.15;;
30543;SDS011;43388;46.308;4.600;2022-09-02T08:34:34;5.28;;;3.88;;
30543;SDS011;43388;46.308;4.600;2022-09-02T08:37:00;6.32;;;3.00;;
30543;SDS011;43388;46.308;4.600;2022-09-02T08:39:26;4.03;;;2.83;;
30543;SDS011;43388;46.308;4.600;2022-09-02T08:44:21;3.97;;;2.75;;
30543;SDS011;43388;46.308;4.600;2022-09-02T08:46:52;3.38;;;3.08;;
30543;SDS011;43388;46.308;4.600;2022-09-02T08:49:23;7.50;;;2.90;;
30543;SDS011;43388;46.308;4.600;2022-09-02T08:51:56;7.85;;;3.80;;
30543;SDS011;43388;46.308;4.600;2022-09-02T08:56:48;4.32;;;3.03;;
30543;SDS011;43388;46.308;4.600;2022-09-02T08:59:17;3.78;;;3.00;;
30543;SDS011;43388;46.308;4.600;2022-09-02T09:01:47;7.13;;;3.10;;
30543;SDS011;43388;46.308;4.600;2022-09-02T09:04:16;3.33;;;2.67;;
30543;SDS011;43388;46.308;4.600;2022-09-02T09:12:12;5.70;;;3.00;;
30543;SDS011;43388;46.308;4.600;2022-09-02T09:14:43;7.35;;;3.65;;
30543;SDS011;43388;46.308;4.600;2022-09-02T09:19:46;5.70;;;3.42;;
30543;SDS011;43388;46.308;4.600;2022-09-02T09:22:13;6.60;;;3.65;;
30543;SDS011;43388;46.308;4.600;2022-09-02T09:24:41;4.13;;;3.72;;
30543;SDS011;43388;46.308;4.600;2022-09-02T09:27:08;3.55;;;3.13;;
30543;SDS011;43388;46.308;4.600;2022-09-02T09:29:36;7.93;;;3.35;;
30543;SDS011;43388;46.308;4.600;2022-09-02T09:32:02;11.48;;;3.03;;
30543;SDS011;43388;46.308;4.600;2022-09-02T09:39:56;5.75;;;2.92;;
30543;SDS011;43388;46.308;4.600;2022-09-02T09:42:33;6.68;;;3.75;;
30543;SDS011;43388;46.308;4.600;2022-09-02T09:44:59;5.72;;;3.13;;
30543;SDS011;43388;46.308;4.600;2022-09-02T09:47:25;3.83;;;3.17;;
30543;SDS011;43388;46.308;4.600;2022-09-02T09:49:52;18.75;;;3.63;;
30543;SDS011;43388;46.308;4.600;2022-09-02T09:52:23;3.97;;;3.58;;
30543;SDS011;43388;46.308;4.600;2022-09-02T09:57:35;5.13;;;3.40;;
30543;SDS011;43388;46.308;4.600;2022-09-02T10:00:05;14.35;;;4.20;;
30543;SDS011;43388;46.308;4.600;2022-09-02T10:02:34;6.43;;;3.75;;
30543;SDS011;43388;46.308;4.600;2022-09-02T10:05:18;3.92;;;3.53;;
30543;SDS011;43388;46.308;4.600;2022-09-02T10:07:51;3.80;;;3.50;;
30543;SDS011;43388;46.308;4.600;2022-09-02T10:10:21;3.65;;;3.28;;
30543;SDS011;43388;46.308;4.600;2022-09-02T10:12:48;6.07;;;3.80;;
30543;SDS011;43388;46.308;4.600;2022-09-02T10:15:17;7.53;;;3.92;;
30543;SDS011;43388;46.308;4.600;2022-09-02T10:25:44;5.53;;;4.13;;
30543;SDS011;43388;46.308;4.600;2022-09-02T10:33:35;5.55;;;4.97;;
30543;SDS011;43388;46.308;4.600;2022-09-02T10:38:51;4.40;;;4.00;;
30543;SDS011;43388;46.308;4.600;2022-09-02T10:52:34;13.35;;;4.47;;
30543;SDS011;43388;46.308;4.600;2022-09-02T10:55:18;4.05;;;3.75;;
30543;SDS011;43388;46.308;4.600;2022-09-02T10:57:47;7.10;;;4.30;;
30543;SDS011;43388;46.308;4.600;2022-09-02T11:00:20;7.38;;;4.35;;
30543;SDS011;43388;46.308;4.600;2022-09-02T11:10:22;5.40;;;4.40;;
30543;SDS011;43388;46.308;4.600;2022-09-02T11:13:02;7.85;;;4.35;;
30543;SDS011;43388;46.308;4.600;2022-09-02T11:15:46;4.78;;;4.00;;
30543;SDS011;43388;46.308;4.600;2022-09-02T11:18:18;4.20;;;3.50;;
30543;SDS011;43388;46.308;4.600;2022-09-02T11:20:46;7.63;;;3.60;;
30543;SDS011;43388;46.308;4.600;2022-09-02T11:26:09;3.65;;;3.33;;
30543;SDS011;43388;46.308;4.600;2022-09-02T11:28:59;4.00;;;3.38;;
30543;SDS011;43388;46.308;4.600;2022-09-02T11:33:54;8.05;;;3.15;;
30543;SDS011;43388;46.308;4.600;2022-09-02T11:36:22;7.40;;;4.00;;
30543;SDS011;43388;46.308;4.600;2022-09-02T11:38:50;6.18;;;4.38;;
30543;SDS011;43388;46.308;4.600;2022-09-02T11:41:27;7.95;;;4.05;;
30543;SDS011;43388;46.308;4.600;2022-09-02T11:54:20;4.40;;;4.00;;
30543;SDS011;43388;46.308;4.600;2022-09-02T11:56:49;5.75;;;4.10;;
30543;SDS011;43388;46.308;4.600;2022-09-02T11:59:20;6.10;;;3.80;;
30543;SDS011;43388;46.308;4.600;2022-09-02T12:01:50;5.35;;;4.25;;
30543;SDS011;43388;46.308;4.600;2022-09-02T12:04:19;5.22;;;3.70;;
30543;SDS011;43388;46.308;4.600;2022-09-02T12:17:39;4.43;;;3.60;;
30543;SDS011;43388;46.308;4.600;2022-09-02T12:20:47;3.90;;;3.67;;
30543;SDS011;43388;46.308;4.600;2022-09-02T12:22:56;4.35;;;3.80;;
30543;SDS011;43388;46.308;4.600;2022-09-02T12:28:08;6.35;;;3.45;;
30543;SDS011;43388;46.308;4.600;2022-09-02T12:33:29;3.83;;;3.15;;
30543;SDS011;43388;46.308;4.600;2022-09-02T12:35:56;4.80;;;3.00;;
30543;SDS011;43388;46.308;4.600;2022-09-02T12:43:18;3.65;;;3.35;;
30543;SDS011;43388;46.308;4.600;2022-09-02T12:45:49;3.70;;;3.38;;
30543;SDS011;43388;46.308;4.600;2022-09-02T12:48:16;3.63;;;3.15;;
30543;SDS011;43388;46.308;4.600;2022-09-02T12:50:57;4.18;;;3.50;;
30543;SDS011;43388;46.308;4.600;2022-09-02T12:58:33;3.25;;;2.95;;
30543;SDS011;43388;46.308;4.600;2022-09-02T13:03:45;4.50;;;3.03;;
30543;SDS011;43388;46.308;4.600;2022-09-02T13:06:34;8.50;;;3.25;;
30543;SDS011;43388;46.308;4.600;2022-09-02T13:09:22;3.80;;;2.95;;
30543;SDS011;43388;46.308;4.600;2022-09-02T13:12:02;3.60;;;3.13;;
30543;SDS011;43388;46.308;4.600;2022-09-02T13:23:06;3.47;;;2.92;;
30543;SDS011;43388;46.308;4.600;2022-09-02T13:32:31;3.45;;;2.13;;
30543;SDS011;43388;46.308;4.600;2022-09-02T13:35:03;2.47;;;2.28;;
30543;SDS011;43388;46.308;4.600;2022-09-02T13:37:37;2.95;;;2.00;;
30543;SDS011;43388;46.308;4.600;2022-09-02T13:40:05;2.38;;;1.83;;
30543;SDS011;43388;46.308;4.600;2022-09-02T13:42:31;2.85;;;1.90;;
30543;SDS011;43388;46.308;4.600;2022-09-02T13:45:13;2.25;;;2.08;;
30543;SDS011;43388;46.308;4.600;2022-09-02T13:47:41;1.65;;;1.55;;
30543;SDS011;43388;46.308;4.600;2022-09-02T13:50:07;4.22;;;1.88;;
30543;SDS011;43388;46.308;4.600;2022-09-02T13:52:35;2.67;;;2.00;;
30543;SDS011;43388;46.308;4.600;2022-09-02T13:55:01;2.45;;;1.95;;
30543;SDS011;43388;46.308;4.600;2022-09-02T13:57:28;1.92;;;1.83;;
30543;SDS011;43388;46.308;4.600;2022-09-02T13:59:55;2.25;;;1.70;;
30543;SDS011;43388;46.308;4.600;2022-09-02T14:02:26;2.05;;;1.95;;
30543;SDS011;43388;46.308;4.600;2022-09-02T14:04:55;5.32;;;2.00;;
30543;SDS011;43388;46.308;4.600;2022-09-02T14:07:23;3.60;;;2.42;;
30543;SDS011;43388;46.308;4.600;2022-09-02T14:09:51;2.45;;;2.28;;
30543;SDS011;43388;46.308;4.600;2022-09-02T14:12:17;2.35;;;2.15;;
30543;SDS011;43388;46.308;4.600;2022-09-02T14:14:43;2.55;;;2.35;;
30543;SDS011;43388;46.308;4.600;2022-09-02T14:17:43;2.55;;;2.10;;
30543;SDS011;43388;46.308;4.600;2022-09-02T14:20:16;2.90;;;2.60;;
30543;SDS011;43388;46.308;4.600;2022-09-02T14:22:42;3.75;;;2.92;;
30543;SDS011;43388;46.308;4.600;2022-09-02T14:25:15;3.50;;;2.45;;
30543;SDS011;43388;46.308;4.600;2022-09-02T14:27:55;5.45;;;2.65;;
30543;SDS011;43388;46.308;4.600;2022-09-02T14:35:41;2.97;;;2.78;;
30543;SDS011;43388;46.308;4.600;2022-09-02T14:38:23;2.92;;;2.58;;
30543;SDS011;43388;46.308;4.600;2022-09-02T14:40:57;2.60;;;2.40;;
30543;SDS011;43388;46.308;4.600;2022-09-02T14:43:23;3.15;;;2.85;;
30543;SDS011;43388;46.308;4.600;2022-09-02T14:45:49;4.15;;;2.92;;
30543;SDS011;43388;46.308;4.600;2022-09-02T14:48:18;2.88;;;2.67;;
30543;SDS011;43388;46.308;4.600;2022-09-02T14:50:45;3.47;;;2.80;;
30543;SDS011;43388;46.308;4.600;2022-09-02T14:53:11;3.28;;;2.78;;
30543;SDS011;43388;46.308;4.600;2022-09-02T14:55:45;3.95;;;2.50;;
30543;SDS011;43388;46.308;4.600;2022-09-02T14:58:11;4.30;;;3.28;;
30543;SDS011;43388;46.308;4.600;2022-09-02T15:00:37;3.88;;;2.65;;
30543;SDS011;43388;46.308;4.600;2022-09-02T15:03:04;3.35;;;3.03;;
30543;SDS011;43388;46.308;4.600;2022-09-02T15:05:31;3.42;;;2.72;;
30543;SDS011;43388;46.308;4.600;2022-09-02T15:07:57;2.83;;;2.45;;
30543;SDS011;43388;46.308;4.600;2022-09-02T15:10:23;3.63;;;2.72;;
30543;SDS011;43388;46.308;4.600;2022-09-02T15:12:52;3.47;;;3.00;;
30543;SDS011;43388;46.308;4.600;2022-09-02T15:15:18;2.97;;;2.78;;
30543;SDS011;43388;46.308;4.600;2022-09-02T15:17:44;3.63;;;2.72;;
30543;SDS011;43388;46.308;4.600;2022-09-02T15:20:10;3.72;;;2.80;;
30543;SDS011;43388;46.308;4.600;2022-09-02T15:22:37;5.22;;;3.08;;
30543;SDS011;43388;46.308;4.600;2022-09-02T15:25:03;4.55;;;3.00;;
30543;SDS011;43388;46.308;4.600;2022-09-02T15:27:32;8.50;;;3.55;;
30543;SDS011;43388;46.308;4.600;2022-09-02T15:29:58;5.47;;;3.50;;
30543;SDS011;43388;46.308;4.600;2022-09-02T15:32:25;4.00;;;3.15;;
30543;SDS011;43388;46.308;4.600;2022-09-02T15:34:51;3.60;;;3.30;;
30543;SDS011;43388;46.308;4.600;2022-09-02T15:37:17;3.10;;;2.80;;
30543;SDS011;43388;46.308;4.600;2022-09-02T15:39:43;4.40;;;3.10;;
30543;SDS011;43388;46.308;4.600;2022-09-02T15:42:09;3.65;;;3.28;;
30543;SDS011;43388;46.308;4.600;2022-09-02T15:44:35;3.58;;;3.25;;
30543;SDS011;43388;46.308;4.600;2022-09-02T15:47:01;5.53;;;3.10;;
30543;SDS011;43388;46.308;4.600;2022-09-02T15:49:28;5.70;;;2.97;;
30543;SDS011;43388;46.308;4.600;2022-09-02T15:51:54;3.22;;;2.95;;
30543;SDS011;43388;46.308;4.600;2022-09-02T15:54:21;3.25;;;3.05;;
30543;SDS011;43388;46.308;4.600;2022-09-02T15:56:48;3.50;;;3.20;;
30543;SDS011;43388;46.308;4.600;2022-09-02T15:59:18;5.65;;;3.45;;
30543;SDS011;43388;46.308;4.600;2022-09-02T16:01:46;4.43;;;3.78;;
30543;SDS011;43388;46.308;4.600;2022-09-02T16:04:13;3.35;;;3.03;;
30543;SDS011;43388;46.308;4.600;2022-09-02T16:06:40;4.15;;;2.83;;
30543;SDS011;43388;46.308;4.600;2022-09-02T16:09:07;10.25;;;3.60;;
30543;SDS011;43388;46.308;4.600;2022-09-02T16:11:36;10.15;;;4.18;;
30543;SDS011;43388;46.308;4.600;2022-09-02T16:14:02;8.75;;;3.70;;
30543;SDS011;43388;46.308;4.600;2022-09-02T16:16:29;9.52;;;4.05;;
30543;SDS011;43388;46.308;4.600;2022-09-02T16:18:56;9.95;;;4.63;;
30543;SDS011;43388;46.308;4.600;2022-09-02T16:21:22;9.88;;;4.20;;
30543;SDS011;43388;46.308;4.600;2022-09-02T16:23:49;12.60;;;4.05;;
30543;SDS011;43388;46.308;4.600;2022-09-02T16:26:21;15.75;;;3.50;;
30543;SDS011;43388;46.308;4.600;2022-09-02T16:28:47;5.88;;;3.35;;
30543;SDS011;43388;46.308;4.600;2022-09-02T16:31:15;6.57;;;3.40;;
30543;SDS011;43388;46.308;4.600;2022-09-02T16:33:42;4.90;;;3.95;;
30543;SDS011;43388;46.308;4.600;2022-09-02T16:36:08;6.88;;;3.70;;
30543;SDS011;43388;46.308;4.600;2022-09-02T16:38:35;7.80;;;4.20;;
30543;SDS011;43388;46.308;4.600;2022-09-02T16:41:01;6.97;;;4.28;;
30543;SDS011;43388;46.308;4.600;2022-09-02T16:43:29;9.30;;;3.90;;
30543;SDS011;43388;46.308;4.600;2022-09-02T16:45:55;5.68;;;4.05;;
30543;SDS011;43388;46.308;4.600;2022-09-02T16:48:26;5.68;;;3.40;;
30543;SDS011;43388;46.308;4.600;2022-09-02T16:50:54;6.55;;;3.63;;
30543;SDS011;43388;46.308;4.600;2022-09-02T16:53:20;13.10;;;4.28;;
30543;SDS011;43388;46.308;4.600;2022-09-02T16:55:46;5.30;;;3.60;;
30543;SDS011;43388;46.308;4.600;2022-09-02T16:58:12;6.63;;;3.42;;